Time;durP1;ratioP1;P1;durP2;ratioP2;P2;SDS_P1;SDS_P2;PMS_P1;PMS_P2;Temp;Humidity;BMP_temperature;BMP_pressure;BME280_temperature;BME280_humidity;BME280_pressure;Samples;Min_cycle;Max_cycle;Signal;HPM_P1;HPM_P2
2023/12/23 00:01:57;;;;;;;22.63;2.50;;;;;;;11.57;80.25;101081.22;5009568;28;20132;-47
2023/12/23 00:04:22;;;;;;;15.15;2.30;;;;;;;11.81;80.83;101103.31;5007539;28;20041;-45
2023/12/23 00:06:48;;;;;;;15.40;2.78;;;;;;;11.79;82.34;101079.78;5009254;28;20393;-43
2023/12/23 00:09:15;;;;;;;14.45;2.55;;;;;;;11.98;81.88;101099.16;5010575;28;20033;-47
2023/12/23 00:11:41;;;;;;;10.63;2.30;;;;;;;12.09;80.54;101093.19;5012899;28;20038;-44
2023/12/23 00:14:06;;;;;;;16.77;2.55;;;;;;;12.29;79.77;101082.06;5013112;28;20092;-45
2023/12/23 00:16:32;;;;;;;17.17;2.67;;;;;;;12.42;79.09;101074.34;5012964;28;20037;-49
2023/12/23 00:18:57;;;;;;;13.05;2.28;;;;;;;12.27;79.05;101089.00;5013280;28;20037;-47
2023/12/23 00:21:22;;;;;;;17.75;2.72;;;;;;;12.13;78.51;101083.66;5012070;28;20030;-48
2023/12/23 00:23:48;;;;;;;16.70;2.70;;;;;;;12.22;78.29;101069.78;5011248;28;20045;-50
2023/12/23 00:26:13;;;;;;;17.35;2.88;;;;;;;12.39;78.04;101069.06;5012827;28;20129;-45
2023/12/23 00:28:38;;;;;;;14.52;2.47;;;;;;;12.33;78.21;101057.69;5012366;28;20103;-48
2023/12/23 00:31:04;;;;;;;19.08;3.03;;;;;;;12.43;77.76;101054.31;5013095;28;20396;-46
2023/12/23 00:33:29;;;;;;;20.48;2.83;;;;;;;12.55;78.09;101051.81;5012545;28;20034;-45
2023/12/23 00:35:54;;;;;;;13.60;2.30;;;;;;;12.21;78.88;101045.38;5013228;28;20145;-49
2023/12/23 00:38:19;;;;;;;18.40;2.72;;;;;;;12.62;78.05;101044.88;5013071;28;20136;-47
2023/12/23 00:40:45;;;;;;;16.35;2.60;;;;;;;12.78;77.20;101044.13;5012683;28;20041;-47
2023/12/23 00:43:10;;;;;;;10.82;2.38;;;;;;;12.54;77.68;101058.75;5012569;28;20042;-44
2023/12/23 00:45:36;;;;;;;18.00;2.75;;;;;;;12.67;77.58;101049.28;5012435;28;20329;-43
2023/12/23 00:48:01;;;;;;;15.95;2.67;;;;;;;12.79;77.32;101046.75;5012762;28;20502;-47
2023/12/23 00:50:26;;;;;;;19.58;3.00;;;;;;;12.26;78.43;101045.44;5012691;28;20045;-44
2023/12/23 00:52:51;;;;;;;11.13;2.53;;;;;;;12.79;77.78;101035.41;5012398;28;20034;-46
2023/12/23 00:55:17;;;;;;;14.35;3.05;;;;;;;12.09;79.45;101026.97;5012690;28;20077;-45
2023/12/23 00:57:42;;;;;;;15.43;2.92;;;;;;;12.69;78.00;101028.34;5012143;28;20034;-45
2023/12/23 01:00:08;;;;;;;14.00;3.20;;;;;;;12.81;77.75;101016.22;5012850;28;20040;-48
2023/12/23 01:02:33;;;;;;;17.55;2.95;;;;;;;12.81;78.05;101025.81;5011830;28;20038;-48
2023/12/23 01:04:59;;;;;;;13.20;2.63;;;;;;;12.69;78.81;101018.75;5012711;28;20034;-45
2023/12/23 01:07:24;;;;;;;18.48;3.30;;;;;;;12.40;79.72;101029.00;5012640;28;20030;-46
2023/12/23 01:09:49;;;;;;;15.23;3.35;;;;;;;12.64;79.37;101014.34;5012204;28;20034;-47
2023/12/23 01:12:15;;;;;;;17.10;3.20;;;;;;;12.89;77.82;101022.38;5013040;28;20429;-45
2023/12/23 01:14:40;;;;;;;18.63;3.72;;;;;;;12.75;78.74;101016.19;5012323;28;20042;-45
2023/12/23 01:17:05;;;;;;;12.73;3.22;;;;;;;12.53;79.27;101033.47;5012308;28;20037;-45
2023/12/23 01:19:30;;;;;;;17.75;2.80;;;;;;;12.28;79.97;101034.13;5012423;28;20034;-44
2023/12/23 01:21:57;;;;;;;12.45;2.60;;;;;;;12.40;80.56;101025.50;5012638;28;20121;-44
2023/12/23 01:24:22;;;;;;;13.32;2.47;;;;;;;12.19;81.54;101013.16;5012934;28;20030;-50
2023/12/23 01:26:48;;;;;;;10.73;1.80;;;;;;;12.18;79.76;101020.09;5012879;28;20515;-47
2023/12/23 01:29:13;;;;;;;8.93;1.90;;;;;;;12.42;78.93;101015.94;5013572;28;20036;-46
2023/12/23 01:31:38;;;;;;;7.13;1.70;;;;;;;12.25;79.33;101009.72;5012098;28;20073;-48
2023/12/23 01:34:04;;;;;;;11.43;1.58;;;;;;;11.93;80.48;101010.28;5013240;28;20044;-44
2023/12/23 01:36:29;;;;;;;10.25;2.00;;;;;;;12.39;79.72;101003.72;5012648;28;20034;-46
2023/12/23 01:38:54;;;;;;;9.60;2.03;;;;;;;12.12;79.71;101006.97;5012781;28;20099;-44
2023/12/23 01:41:19;;;;;;;12.13;1.98;;;;;;;12.06;81.29;101008.66;5013119;28;20034;-46
2023/12/23 01:43:45;;;;;;;11.48;2.33;;;;;;;11.91;82.24;100996.31;5012299;28;20029;-48
2023/12/23 01:46:11;;;;;;;18.33;2.30;;;;;;;12.16;82.21;100998.31;5012528;28;20034;-44
2023/12/23 01:48:39;;;;;;;11.70;2.45;;;;;;;12.50;80.71;100983.75;5010080;28;20053;-44
2023/12/23 01:51:05;;;;;;;11.80;2.65;;;;;;;11.92;82.34;100992.84;5011827;28;20049;-43
2023/12/23 01:53:31;;;;;;;17.13;2.83;;;;;;;11.99;81.28;100997.28;5010983;28;20026;-43
2023/12/23 01:55:57;;;;;;;12.15;2.30;;;;;;;12.59;79.44;100996.91;5011384;28;20049;-43
2023/12/23 01:58:23;;;;;;;12.75;2.10;;;;;;;12.34;79.51;100996.69;5011469;28;20400;-44
2023/12/23 02:00:49;;;;;;;12.55;2.05;;;;;;;12.17;80.20;100976.53;5011172;28;20030;-46
2023/12/23 02:03:14;;;;;;;17.50;2.45;;;;;;;12.38;79.42;100999.34;5010868;28;20037;-46
2023/12/23 02:05:39;;;;;;;13.02;2.40;;;;;;;12.17;80.85;100989.59;5010597;28;20057;-46
2023/12/23 02:08:06;;;;;;;12.95;2.38;;;;;;;12.38;81.76;100991.50;5011034;28;20116;-46
2023/12/23 02:10:32;;;;;;;14.10;2.22;;;;;;;11.84;82.67;100989.28;5010787;28;20030;-49
2023/12/23 02:13:16;;;;;;;12.30;2.47;;;;;;;12.14;82.77;100978.22;5011024;28;20505;-51
2023/12/23 02:15:45;;;;;;;13.23;2.10;;;;;;;12.02;81.80;100975.50;5010980;28;20042;-48
2023/12/23 02:18:11;;;;;;;11.23;2.13;;;;;;;12.60;80.43;100966.41;5011236;28;20034;-47
2023/12/23 02:20:37;;;;;;;23.70;2.20;;;;;;;11.96;80.83;100972.84;5010832;28;20496;-45
2023/12/23 02:23:02;;;;;;;8.23;1.95;;;;;;;12.49;80.08;100958.50;5010613;28;20108;-43
2023/12/23 02:25:28;;;;;;;16.00;2.17;;;;;;;12.53;78.70;100954.13;5010657;28;20089;-44
2023/12/23 02:27:54;;;;;;;13.82;2.10;;;;;;;12.55;78.92;100958.53;5010527;28;20038;-45
2023/12/23 02:30:22;;;;;;;13.13;2.30;;;;;;;12.49;78.67;100940.19;5009559;28;20088;-47
2023/12/23 02:32:47;;;;;;;12.82;1.88;;;;;;;12.29;78.50;100951.34;5009144;28;20042;-51
2023/12/23 02:35:13;;;;;;;15.30;2.15;;;;;;;12.17;78.72;100941.69;5010766;28;20040;-50
2023/12/23 02:37:38;;;;;;;14.57;2.15;;;;;;;12.47;77.44;100944.50;5010059;28;20034;-46
2023/12/23 02:40:04;;;;;;;8.82;1.80;;;;;;;12.48;77.01;100937.56;5010225;28;20504;-48
2023/12/23 02:42:30;;;;;;;8.65;1.92;;;;;;;12.67;76.79;100947.25;5009323;28;20037;-47
2023/12/23 02:44:55;;;;;;;19.70;2.60;;;;;;;12.64;76.78;100949.84;5009418;28;20038;-44
2023/12/23 02:47:20;;;;;;;11.15;1.80;;;;;;;12.29;77.49;100938.28;5009962;28;20065;-47
2023/12/23 02:49:45;;;;;;;11.88;1.80;;;;;;;12.20;77.64;100926.88;5008888;28;20790;-44
2023/12/23 02:52:11;;;;;;;14.23;1.90;;;;;;;12.74;76.15;100932.47;5010281;28;20833;-45
2023/12/23 02:54:37;;;;;;;13.55;2.10;;;;;;;12.64;77.17;100939.38;5010090;28;20574;-45
2023/12/23 02:57:02;;;;;;;15.57;1.90;;;;;;;12.93;75.96;100950.00;5010224;28;20404;-50
2023/12/23 02:59:27;;;;;;;13.23;2.10;;;;;;;12.46;76.39;100948.00;5009972;28;20440;-46
2023/12/23 03:01:53;;;;;;;12.45;1.85;;;;;;;12.96;75.54;100940.44;5009891;28;20037;-49
2023/12/23 03:04:19;;;;;;;13.88;1.85;;;;;;;12.95;75.97;100922.97;5010380;28;20037;-50
2023/12/23 03:06:44;;;;;;;15.40;2.08;;;;;;;12.60;76.95;100930.66;5008204;28;20041;-45
2023/12/23 03:09:09;;;;;;;14.45;2.17;;;;;;;12.94;75.63;100920.34;5010636;28;20057;-45
2023/12/23 03:11:36;;;;;;;16.98;2.20;;;;;;;12.43;75.89;100931.41;5009976;28;20030;-52
2023/12/23 03:14:01;;;;;;;18.13;2.38;;;;;;;12.99;74.99;100929.97;5010164;28;20091;-46
2023/12/23 03:16:33;;;;;;;14.75;2.10;;;;;;;12.24;76.85;100921.69;5009629;28;20034;-47
2023/12/23 03:18:59;;;;;;;16.83;2.15;;;;;;;12.62;76.02;100922.84;5007860;28;20284;-46
2023/12/23 03:21:24;;;;;;;18.55;2.42;;;;;;;12.35;75.90;100928.75;5010272;28;20112;-44
2023/12/23 03:23:49;;;;;;;12.32;2.22;;;;;;;12.60;75.23;100904.50;5009691;28;20029;-49
2023/12/23 03:26:15;;;;;;;16.15;1.95;;;;;;;12.77;75.42;100924.63;5010068;28;20037;-45
2023/12/23 03:28:40;;;;;;;14.48;2.15;;;;;;;12.77;75.11;100922.03;5009495;28;20038;-44
2023/12/23 03:31:06;;;;;;;15.85;2.40;;;;;;;12.60;75.83;100922.81;5009139;28;20041;-50
2023/12/23 03:33:31;;;;;;;18.70;1.95;;;;;;;12.59;76.00;100918.44;5009749;28;20034;-45
2023/12/23 03:35:59;;;;;;;16.05;2.15;;;;;;;12.65;75.46;100921.94;5009790;28;20085;-44
2023/12/23 03:38:25;;;;;;;14.48;2.00;;;;;;;12.95;73.56;100911.63;5010279;28;20037;-48
2023/12/23 03:40:50;;;;;;;17.60;2.20;;;;;;;12.47;75.98;100907.03;5009759;28;20107;-49
2023/12/23 03:43:15;;;;;;;10.07;2.05;;;;;;;12.58;75.53;100914.06;5009933;28;20121;-45
2023/12/23 03:45:41;;;;;;;13.68;2.10;;;;;;;12.67;75.38;100909.78;5012914;28;20392;-45
2023/12/23 03:48:06;;;;;;;14.32;1.98;;;;;;;12.69;74.62;100919.34;5013782;28;20382;-43
2023/12/23 03:50:32;;;;;;;12.98;1.88;;;;;;;12.62;74.58;100899.28;5013564;28;20038;-46
2023/12/23 03:52:57;;;;;;;15.57;2.08;;;;;;;12.35;75.37;100892.16;5013439;28;20563;-49
2023/12/23 03:55:29;;;;;;;18.23;2.40;;;;;;;12.43;74.06;100876.50;5013658;28;20049;-48
2023/12/23 03:57:54;;;;;;;17.02;2.70;;;;;;;12.44;75.20;100886.13;5013243;28;20029;-45
2023/12/23 04:00:20;;;;;;;13.10;1.92;;;;;;;12.81;74.16;100885.41;5013736;28;20092;-45
2023/12/23 04:02:45;;;;;;;11.32;2.40;;;;;;;12.41;74.82;100901.75;5013002;28;20038;-44
2023/12/23 04:05:10;;;;;;;13.32;2.30;;;;;;;12.42;74.55;100875.63;5013364;28;20045;-44
2023/12/23 04:07:36;;;;;;;12.20;2.13;;;;;;;12.59;74.29;100880.94;5011333;28;20129;-44
2023/12/23 04:10:01;;;;;;;13.98;2.03;;;;;;;12.80;74.04;100868.00;5013382;28;20040;-47
2023/12/23 04:12:27;;;;;;;14.93;2.10;;;;;;;12.66;73.73;100859.19;5013100;28;20038;-46
2023/12/23 04:14:52;;;;;;;14.82;1.92;;;;;;;12.43;74.87;100859.09;5013611;28;20057;-44
2023/12/23 04:17:18;;;;;;;18.08;2.72;;;;;;;12.78;73.84;100863.59;5013554;28;20534;-47
2023/12/23 04:19:43;;;;;;;19.38;3.08;;;;;;;12.75;73.33;100867.06;5011732;28;20448;-45
2023/12/23 04:22:08;;;;;;;13.23;2.05;;;;;;;12.78;73.49;100861.00;5013080;28;20041;-43
2023/12/23 04:24:33;;;;;;;12.05;2.38;;;;;;;12.39;74.77;100859.03;5012988;28;20057;-49
2023/12/23 04:26:59;;;;;;;14.38;2.10;;;;;;;12.86;73.63;100868.00;5013077;28;20034;-45
2023/12/23 04:29:24;;;;;;;18.88;2.38;;;;;;;12.47;74.27;100847.78;5013230;28;20404;-47
2023/12/23 04:31:49;;;;;;;18.52;2.22;;;;;;;12.37;74.62;100866.03;5012474;28;20040;-46
2023/12/23 04:34:15;;;;;;;14.00;2.42;;;;;;;12.30;74.89;100864.22;5013281;28;20069;-44
2023/12/23 04:36:40;;;;;;;19.02;2.50;;;;;;;12.75;73.68;100858.34;5012850;28;20081;-46
2023/12/23 04:39:06;;;;;;;13.38;2.47;;;;;;;12.69;73.61;100851.34;5011957;28;20029;-45
2023/12/23 04:41:34;;;;;;;20.85;2.75;;;;;;;12.61;73.88;100850.47;5013220;28;20033;-45
2023/12/23 04:44:03;;;;;;;14.20;2.08;;;;;;;12.92;72.91;100854.97;5013369;28;20056;-44
2023/12/23 04:46:28;;;;;;;16.90;2.55;;;;;;;12.71;73.73;100844.38;5010427;28;20034;-45
2023/12/23 04:48:53;;;;;;;16.67;2.25;;;;;;;12.55;73.98;100846.06;5012446;28;20408;-46
2023/12/23 04:51:19;;;;;;;14.40;1.77;;;;;;;12.74;73.36;100861.84;5012632;28;20199;-48
2023/12/23 04:53:44;;;;;;;15.00;2.58;;;;;;;12.82;73.00;100871.47;5012204;28;20049;-44
2023/12/23 04:56:09;;;;;;;11.95;2.13;;;;;;;12.62;73.17;100851.34;5008884;28;20038;-45
2023/12/23 04:58:35;;;;;;;10.73;2.22;;;;;;;12.60;73.69;100856.56;5011899;28;20448;-50
2023/12/23 05:01:01;;;;;;;15.13;2.10;;;;;;;12.44;74.39;100868.66;5012510;28;20045;-47
2023/12/23 05:03:26;;;;;;;18.13;2.53;;;;;;;12.91;72.34;100858.44;5012303;28;20066;-46
2023/12/23 05:05:52;;;;;;;14.40;2.28;;;;;;;12.88;71.88;100887.19;5012425;28;20041;-48
2023/12/23 05:08:17;;;;;;;16.98;2.70;;;;;;;12.97;72.65;100860.19;5011353;28;20049;-46
2023/12/23 05:10:44;;;;;;;16.30;2.45;;;;;;;12.92;72.43;100854.97;5011986;28;20519;-45
2023/12/23 05:13:09;;;;;;;14.60;2.15;;;;;;;12.57;73.63;100857.41;5012193;28;20121;-46
2023/12/23 05:15:35;;;;;;;19.10;2.40;;;;;;;12.70;73.20;100847.88;5011976;28;20041;-46
2023/12/23 05:18:00;;;;;;;12.23;2.40;;;;;;;12.61;73.85;100845.22;5012351;28;20038;-48
2023/12/23 05:20:25;;;;;;;18.55;2.05;;;;;;;12.59;73.63;100849.56;5012602;28;20045;-45
2023/12/23 05:22:51;;;;;;;18.67;2.58;;;;;;;12.74;72.97;100849.66;5011417;28;20037;-46
2023/12/23 05:25:16;;;;;;;16.70;2.25;;;;;;;13.08;72.18;100841.91;5011946;28;20095;-45
2023/12/23 05:27:41;;;;;;;23.15;2.60;;;;;;;12.58;73.26;100839.97;5011435;28;20113;-45
2023/12/23 05:30:07;;;;;;;17.02;2.72;;;;;;;12.89;73.00;100851.44;5010763;28;20042;-47
2023/12/23 05:32:32;;;;;;;18.58;2.35;;;;;;;12.79;73.22;100854.91;5010666;28;20531;-47
2023/12/23 05:34:58;;;;;;;17.23;2.10;;;;;;;12.91;72.53;100860.16;5011855;28;20038;-46
2023/12/23 05:37:23;;;;;;;17.20;2.30;;;;;;;12.89;72.46;100857.53;5011862;28;20049;-45
2023/12/23 05:39:48;;;;;;;15.07;2.80;;;;;;;12.73;72.59;100845.28;5011744;28;20130;-46
2023/12/23 05:42:14;;;;;;;18.83;2.65;;;;;;;12.80;72.51;100847.06;5011532;28;20049;-46
2023/12/23 05:44:40;;;;;;;17.38;2.72;;;;;;;12.75;72.50;100835.69;5011316;28;20033;-45
2023/12/23 05:47:05;;;;;;;18.35;2.60;;;;;;;12.51;73.64;100836.44;5011674;28;20048;-49
2023/12/23 05:49:30;;;;;;;16.83;2.58;;;;;;;12.56;73.72;100836.50;5009239;28;20026;-44
2023/12/23 05:51:56;;;;;;;14.02;2.60;;;;;;;12.94;72.57;100855.81;5011407;28;20033;-45
2023/12/23 05:54:22;;;;;;;20.58;2.85;;;;;;;12.65;73.96;100840.88;5011894;28;20061;-43
2023/12/23 05:56:47;;;;;;;17.13;2.83;;;;;;;13.00;72.52;100837.50;5011099;28;20492;-49
2023/12/23 05:59:13;;;;;;;19.73;2.70;;;;;;;12.84;72.72;100846.19;5011517;28;20077;-48
2023/12/23 06:01:38;;;;;;;20.40;3.10;;;;;;;12.97;72.62;100852.34;5010810;28;20129;-48
2023/12/23 06:04:03;;;;;;;14.05;2.47;;;;;;;12.97;72.61;100841.88;5011127;28;20034;-46
2023/12/23 06:06:29;;;;;;;17.02;2.70;;;;;;;12.50;73.92;100854.78;5010936;28;20515;-44
2023/12/23 06:08:54;;;;;;;19.40;3.08;;;;;;;12.71;73.45;100846.13;5011012;28;20045;-47
2023/12/23 06:11:19;;;;;;;20.13;2.50;;;;;;;12.97;73.38;100841.88;5011249;28;20061;-46
2023/12/23 06:13:45;;;;;;;20.02;2.83;;;;;;;12.81;73.56;100822.63;5011037;28;20120;-43
2023/12/23 06:16:10;;;;;;;14.85;2.67;;;;;;;12.89;73.13;100827.88;5011426;28;20420;-48
2023/12/23 06:18:35;;;;;;;23.02;3.00;;;;;;;12.99;73.18;100840.16;5011924;28;20045;-44
2023/12/23 06:21:01;;;;;;;19.38;2.50;;;;;;;13.22;72.24;100838.50;5012290;28;20507;-44
2023/12/23 06:23:26;;;;;;;19.92;2.63;;;;;;;12.76;73.94;100832.19;5010663;28;20269;-48
2023/12/23 06:25:52;;;;;;;14.73;2.45;;;;;;;12.69;73.51;100832.16;5011138;28;20630;-44
2023/12/23 06:28:17;;;;;;;16.15;2.13;;;;;;;12.67;73.84;100829.56;5010785;28;20053;-47
2023/12/23 06:30:42;;;;;;;16.65;2.78;;;;;;;12.71;73.40;100851.34;5010545;28;20091;-47
2023/12/23 06:33:08;;;;;;;14.30;2.50;;;;;;;12.84;72.94;100812.19;5010589;28;20046;-46
2023/12/23 06:35:33;;;;;;;15.32;2.88;;;;;;;12.92;72.62;100833.16;5009989;28;20083;-50
2023/12/23 06:37:58;;;;;;;20.30;2.70;;;;;;;12.92;72.66;100836.63;5010872;28;20432;-44
2023/12/23 06:40:24;;;;;;;16.70;2.78;;;;;;;12.82;72.93;100821.75;5010991;28;20381;-46
2023/12/23 06:42:49;;;;;;;18.02;2.22;;;;;;;12.63;73.71;100819.06;5010092;28;20029;-45
2023/12/23 06:45:15;;;;;;;17.42;2.35;;;;;;;12.37;74.52;100827.69;5010674;28;20033;-45
2023/12/23 06:47:40;;;;;;;21.95;2.97;;;;;;;12.84;72.94;100811.31;5008607;28;20105;-49
2023/12/23 06:50:06;;;;;;;23.02;2.80;;;;;;;12.63;73.76;100806.84;5010911;28;20050;-46
2023/12/23 06:52:31;;;;;;;16.05;2.65;;;;;;;12.54;74.52;100814.69;5009780;28;20037;-45
2023/12/23 06:54:57;;;;;;;22.80;3.75;;;;;;;12.67;74.10;100810.38;5010788;28;20029;-45
2023/12/23 06:57:22;;;;;;;16.17;2.85;;;;;;;12.75;73.74;100806.91;5011081;28;20492;-51
2023/12/23 06:59:47;;;;;;;18.95;2.58;;;;;;;12.67;73.44;100810.38;5010468;28;20040;-44
2023/12/23 07:02:13;;;;;;;14.38;2.28;;;;;;;12.74;72.81;100797.34;5010660;28;20068;-45
2023/12/23 07:04:39;;;;;;;16.13;2.88;;;;;;;12.85;73.10;100802.59;5010316;28;20041;-45
2023/12/23 07:07:04;;;;;;;14.82;2.75;;;;;;;12.49;74.18;100824.25;5010967;28;20040;-48
2023/12/23 07:09:29;;;;;;;17.58;2.70;;;;;;;12.89;73.28;100838.34;5011167;28;20037;-44
2023/12/23 07:11:55;;;;;;;24.10;3.10;;;;;;;12.71;73.67;100815.63;5021493;23;20072;-80
2023/12/23 07:14:20;;;;;;;16.00;2.40;;;;;;;12.69;73.38;100813.84;5027200;28;20499;-80
2023/12/23 07:16:46;;;;;;;16.20;2.70;;;;;;;12.96;72.33;100824.41;5012184;28;21109;-79
2023/12/23 07:19:13;;;;;;;19.17;2.83;;;;;;;12.91;72.46;100828.78;5012142;28;20042;-79
2023/12/23 07:21:38;;;;;;;14.48;2.42;;;;;;;12.62;72.85;100830.41;5012031;28;20087;-79
2023/12/23 07:24:04;;;;;;;16.33;2.70;;;;;;;12.73;72.56;100820.88;5013660;28;20034;-77
2023/12/23 07:26:30;;;;;;;13.00;2.80;;;;;;;12.65;72.56;100814.72;5012020;28;20462;-78
2023/12/23 07:28:55;;;;;;;17.83;2.58;;;;;;;12.97;71.76;100823.56;5013561;28;20057;-77
2023/12/23 07:31:21;;;;;;;18.40;3.00;;;;;;;12.98;72.15;100825.31;5012830;28;20065;-79
2023/12/23 07:33:46;;;;;;;20.15;3.03;;;;;;;12.89;72.27;100810.44;5012893;28;20125;-79
2023/12/23 07:36:11;;;;;;;17.05;2.80;;;;;;;12.86;71.24;100820.91;5012083;28;20041;-78
2023/12/23 07:38:37;;;;;;;15.05;2.90;;;;;;;13.08;70.91;100811.38;5012710;28;20449;-80
2023/12/23 07:41:02;;;;;;;17.80;2.90;;;;;;;12.91;71.06;100810.47;5011073;28;20042;-77
2023/12/23 07:43:27;;;;;;;18.55;2.65;;;;;;;12.82;71.73;100823.50;5011104;28;20096;-79
2023/12/23 07:45:56;;;;;;;17.98;2.90;;;;;;;13.31;69.83;100824.53;5012829;28;20087;-78
2023/12/23 07:48:21;;;;;;;18.33;3.17;;;;;;;13.00;70.74;100837.50;5012795;28;20384;-78
2023/12/23 07:50:46;;;;;;;11.73;3.30;;;;;;;13.10;71.08;100824.47;5014687;28;20053;-77
2023/12/23 07:53:12;;;;;;;15.07;3.20;;;;;;;12.82;72.00;100841.81;5014038;28;20479;-79
2023/12/23 07:55:39;;;;;;;12.45;3.28;;;;;;;12.96;72.14;100840.13;5012529;28;20034;-79
2023/12/23 07:58:04;;;;;;;17.05;3.33;;;;;;;13.06;71.38;100831.41;5014016;28;20037;-78
2023/12/23 08:00:30;;;;;;;17.23;2.95;;;;;;;12.75;72.66;100826.94;5012525;28;20045;-79
2023/12/23 08:03:01;;;;;;;17.20;2.80;;;;;;;13.02;72.63;100829.69;5014219;28;20076;-78
2023/12/23 08:05:26;;;;;;;16.95;3.03;;;;;;;12.79;72.24;100819.16;5014323;28;20034;-79
2023/12/23 08:07:54;;;;;;;13.65;2.38;;;;;;;12.81;72.81;100834.81;5018312;28;20590;-78
2023/12/23 08:10:20;;;;;;;13.60;2.67;;;;;;;13.07;72.15;100841.03;5019157;28;20064;-78
2023/12/23 08:12:45;;;;;;;17.42;2.92;;;;;;;13.08;71.99;100821.84;5019475;28;20026;-79
2023/12/23 08:15:13;;;;;;;14.57;2.45;;;;;;;12.80;74.08;100836.59;5019741;28;20399;-79
2023/12/23 08:17:39;;;;;;;13.45;2.90;;;;;;;12.98;73.21;100844.50;5019172;28;20144;-79
2023/12/23 08:20:08;;;;;;;15.65;2.72;;;;;;;12.57;75.01;100856.53;5019413;28;20030;-80
2023/12/23 08:22:41;;;;;;;13.60;2.70;;;;;;;12.55;74.64;100846.06;5018469;28;20097;-80
2023/12/23 08:25:07;;;;;;;16.40;2.65;;;;;;;12.94;73.45;100847.97;5015401;28;20080;-80
2023/12/23 08:27:32;;;;;;;13.75;2.45;;;;;;;12.92;74.00;100843.59;5016916;28;20470;-79
2023/12/23 08:29:57;;;;;;;15.77;2.47;;;;;;;12.99;74.04;100840.16;5011039;28;20049;-79
2023/12/23 08:32:25;;;;;;;14.70;2.88;;;;;;;13.14;73.44;100839.31;5014338;28;20097;-78
2023/12/23 08:34:51;;;;;;;15.88;2.55;;;;;;;12.88;74.33;100832.25;5015560;28;20487;-78
2023/12/23 08:37:16;;;;;;;20.75;2.63;;;;;;;12.90;73.75;100855.81;5016517;28;20037;-77
2023/12/23 08:39:50;;;;;;;11.55;2.55;;;;;;;13.31;71.90;100848.09;5016292;28;20454;-78
2023/12/23 08:42:19;;;;;;;17.73;2.60;;;;;;;12.79;73.36;100854.91;5015636;28;20037;-77
2023/12/23 08:44:44;;;;;;;14.88;2.63;;;;;;;12.63;73.41;100873.97;5019840;28;20100;-78
2023/12/23 08:47:09;;;;;;;13.02;2.60;;;;;;;12.83;73.35;100859.25;5020053;28;20288;-80
2023/12/23 08:49:37;;;;;;;15.65;2.67;;;;;;;12.92;72.92;100860.19;5016101;28;20128;-79
2023/12/23 08:52:03;;;;;;;16.15;2.40;;;;;;;13.32;71.51;100852.47;5016389;28;20034;-79
2023/12/23 08:54:28;;;;;;;17.33;2.47;;;;;;;12.77;73.66;100870.56;5016796;28;20466;-80
2023/12/23 08:56:54;;;;;;;15.82;2.30;;;;;;;12.75;73.22;100877.53;5016252;28;20033;-79
2023/12/23 08:59:19;;;;;;;20.55;2.53;;;;;;;12.66;73.33;100867.03;5015866;28;20065;-78
2023/12/23 09:01:50;;;;;;;15.90;2.60;;;;;;;13.01;72.55;100888.09;5016089;28;20041;-78
2023/12/23 09:04:18;;;;;;;11.18;1.88;;;;;;;13.05;72.51;100871.56;5016455;28;20061;-79
2023/12/23 09:06:43;;;;;;;14.80;2.03;;;;;;;12.70;73.59;100886.22;5013638;28;20053;-79
2023/12/23 09:09:08;;;;;;;19.67;2.83;;;;;;;13.62;70.69;100875.19;5016520;28;20030;-78
2023/12/23 09:11:43;;;;;;;14.10;2.10;;;;;;;13.02;71.58;100890.75;5014060;28;20038;-78
2023/12/23 09:14:15;;;;;;;14.80;2.45;;;;;;;13.21;71.68;100886.47;5013634;28;20415;-77
2023/12/23 09:16:41;;;;;;;14.77;2.30;;;;;;;13.30;71.36;100888.22;5012034;28;20059;-78
2023/12/23 09:19:06;;;;;;;14.52;2.63;;;;;;;13.36;70.91;100901.34;5013097;28;20125;-78
2023/12/23 09:21:32;;;;;;;12.60;2.78;;;;;;;13.21;71.48;100889.09;5014821;28;20037;-78
2023/12/23 09:23:57;;;;;;;16.00;2.40;;;;;;;13.28;71.15;100906.56;5014192;28;20038;-78
2023/12/23 09:26:26;;;;;;;14.43;2.10;;;;;;;13.32;71.26;100889.13;5015626;28;20550;-79
2023/12/23 09:28:52;;;;;;;15.07;2.20;;;;;;;13.14;71.56;100895.19;5014230;28;20110;-78
2023/12/23 09:31:17;;;;;;;18.20;2.40;;;;;;;12.95;71.60;100914.25;5016845;28;20520;-78
2023/12/23 09:33:43;;;;;;;19.60;2.80;;;;;;;13.20;71.44;100894.31;5014789;28;20120;-78
2023/12/23 09:36:14;;;;;;;14.85;2.00;;;;;;;13.23;71.13;100895.22;5016955;28;20037;-79
2023/12/23 09:38:39;;;;;;;15.85;2.08;;;;;;;13.27;70.57;100890.84;5014770;28;20130;-80
2023/12/23 09:41:05;;;;;;;14.50;2.40;;;;;;;12.99;71.48;100905.56;5014333;28;20443;-79
2023/12/23 09:43:32;;;;;;;11.73;2.05;;;;;;;12.96;71.13;100898.56;5014730;28;20048;-79
2023/12/23 09:46:00;;;;;;;15.27;2.22;;;;;;;13.50;69.42;100912.72;5015253;28;20061;-79
2023/12/23 09:48:25;;;;;;;13.73;2.45;;;;;;;13.51;69.55;100924.06;5016297;28;20072;-79
2023/12/23 09:50:51;;;;;;;12.73;2.13;;;;;;;13.33;69.82;100917.06;5013741;28;20038;-79
2023/12/23 09:53:20;;;;;;;15.32;2.10;;;;;;;13.40;69.74;100914.47;5015164;28;20192;-79
2023/12/23 09:55:49;;;;;;;15.02;2.17;;;;;;;13.41;69.59;100910.09;5015637;28;20125;-79
2023/12/23 09:58:15;;;;;;;10.10;1.80;;;;;;;13.06;70.40;100916.91;5016926;28;20034;-79
2023/12/23 10:00:40;;;;;;;12.48;1.95;;;;;;;13.71;68.19;100912.78;5014439;28;20041;-78
2023/12/23 10:03:06;;;;;;;16.98;1.92;;;;;;;13.17;70.30;100915.28;5017013;28;20030;-80
2023/12/23 10:05:32;;;;;;;11.98;2.00;;;;;;;13.56;69.33;100907.50;5018528;28;20442;-80
2023/12/23 10:07:58;;;;;;;14.85;2.05;;;;;;;13.57;69.01;100911.00;5016016;28;20121;-80
2023/12/23 10:10:24;;;;;;;13.82;1.83;;;;;;;13.71;68.14;100896.19;5017507;28;20117;-80
2023/12/23 10:12:50;;;;;;;11.95;2.20;;;;;;;13.82;67.18;100890.06;5019142;28;20117;-78
2023/12/23 10:15:16;;;;;;;13.45;1.90;;;;;;;13.84;67.50;100907.53;5029129;28;20042;-78
2023/12/23 10:17:41;;;;;;;12.05;1.90;;;;;;;13.83;66.87;100917.16;5019695;28;20029;-79
2023/12/23 10:20:07;;;;;;;10.32;1.80;;;;;;;13.64;67.76;100925.84;5018168;28;20034;-79
2023/12/23 10:22:32;;;;;;;12.82;1.80;;;;;;;13.70;66.96;100916.25;5015536;28;20061;-80
2023/12/23 10:25:00;;;;;;;15.00;2.22;;;;;;;13.80;66.28;100894.44;5015586;28;20056;-79
2023/12/23 10:27:27;;;;;;;12.82;1.98;;;;;;;13.79;67.32;100895.28;5013399;28;20037;-81
2023/12/23 10:29:55;;;;;;;10.70;2.17;;;;;;;13.71;67.01;100915.41;5012874;28;20042;-78
2023/12/23 10:32:24;;;;;;;8.32;1.48;;;;;;;13.93;66.40;100908.41;5015064;28;20038;-77
2023/12/23 10:34:54;;;;;;;11.85;1.85;;;;;;;13.88;66.22;100911.91;5013494;28;20121;-78
2023/12/23 10:37:24;;;;;;;10.88;1.83;;;;;;;13.70;67.30;100905.78;5015700;28;20108;-79
2023/12/23 10:39:55;;;;;;;11.85;2.03;;;;;;;14.11;64.84;100916.28;5013861;28;20033;-78
2023/12/23 10:42:23;;;;;;;14.15;1.80;;;;;;;13.64;66.39;100900.53;5014149;28;20030;-80
2023/12/23 10:44:50;;;;;;;12.18;1.80;;;;;;;13.68;66.57;100904.91;5014586;28;20041;-78
2023/12/23 10:47:16;;;;;;;13.70;2.08;;;;;;;13.72;66.29;100914.50;5012896;28;20116;-79
2023/12/23 10:49:45;;;;;;;12.50;1.95;;;;;;;13.51;67.06;100910.97;5013542;28;20065;-79
2023/12/23 10:52:11;;;;;;;9.38;1.80;;;;;;;13.70;66.59;100910.16;5014407;28;20117;-78
2023/12/23 10:54:39;;;;;;;14.30;2.28;;;;;;;13.38;67.09;100912.69;5012646;28;20044;-81
2023/12/23 10:57:06;;;;;;;13.93;2.08;;;;;;;14.12;65.71;100898.78;5015081;28;20033;-80
2023/12/23 10:59:31;;;;;;;12.60;1.88;;;;;;;13.72;67.01;100905.78;5014157;28;20053;-78
2023/12/23 11:01:59;;;;;;;12.77;1.90;;;;;;;13.77;66.33;100951.22;5012816;28;20406;-79
2023/12/23 11:04:28;;;;;;;11.90;2.08;;;;;;;13.48;68.61;100922.31;5013695;28;20049;-79
2023/12/23 11:06:55;;;;;;;16.20;1.90;;;;;;;13.69;67.73;100938.09;5011866;28;20037;-79
2023/12/23 11:09:25;;;;;;;12.77;1.75;;;;;;;13.89;66.93;100929.38;5012810;28;20125;-77
2023/12/23 11:11:57;;;;;;;11.23;2.00;;;;;;;13.27;67.78;100917.03;5011733;28;20037;-78